createdAt,value
2022-09-16T00:00:00.109Z,6
2022-09-16T00:05:00.118Z,6
2022-09-16T00:10:00.112Z,7
2022-09-16T00:15:00.119Z,7
2022-09-16T00:20:00.099Z,6.8
2022-09-16T00:25:00.148Z,6.8
2022-09-16T00:30:00.112Z,8.8
2022-09-16T00:35:00.104Z,8.8
2022-09-16T00:40:00.212Z,7.1
2022-09-16T00:45:00.099Z,7.1
2022-09-16T00:50:00.103Z,7.7
2022-09-16T00:55:00.109Z,7.7
2022-09-16T01:00:00.114Z,5.3
2022-09-16T01:05:00.102Z,5.3
2022-09-16T01:10:00.115Z,8.8
2022-09-16T01:15:00.126Z,8.8
2022-09-16T01:20:00.105Z,7.8
2022-09-16T01:25:00.110Z,7.8
2022-09-16T01:30:00.113Z,6.6
2022-09-16T01:35:00.124Z,6.6
2022-09-16T01:40:00.188Z,6.5
2022-09-16T01:45:00.107Z,6.5
2022-09-16T01:50:00.114Z,7.5
2022-09-16T01:55:00.103Z,7.5
2022-09-16T02:00:00.111Z,6.4
2022-09-16T02:05:00.098Z,6.4
2022-09-16T02:10:00.106Z,7.9
2022-09-16T02:15:00.111Z,7.9
2022-09-16T02:20:00.096Z,6.9
2022-09-16T02:25:00.117Z,6.9
2022-09-16T02:30:00.115Z,7.9
2022-09-16T02:35:00.108Z,7.9
2022-09-16T02:40:00.235Z,9.1
2022-09-16T02:45:00.106Z,9.1
2022-09-16T02:50:00.114Z,7.1
2022-09-16T02:55:00.099Z,7.1
2022-09-16T03:00:00.111Z,6.8
2022-09-16T03:05:00.099Z,6.8
2022-09-16T03:10:00.135Z,8.1
2022-09-16T03:15:00.099Z,8.1
2022-09-16T03:20:00.101Z,8.3
2022-09-16T03:25:00.119Z,8.3
2022-09-16T03:30:00.107Z,6
2022-09-16T03:35:00.107Z,6
2022-09-16T03:40:00.208Z,7.9
2022-09-16T03:45:00.102Z,7.9
2022-09-16T03:50:00.104Z,8.1
2022-09-16T03:55:00.120Z,8.1
2022-09-16T04:00:00.110Z,7
2022-09-16T04:05:00.118Z,7
2022-09-16T04:10:00.104Z,9.4
2022-09-16T04:15:00.942Z,9.4
2022-09-16T04:20:00.129Z,7
2022-09-16T04:25:00.103Z,7
2022-09-16T04:30:00.098Z,5.2
2022-09-16T04:35:00.135Z,5.2
2022-09-16T04:40:04.356Z,6.5
2022-09-16T04:45:00.102Z,6.5
2022-09-16T04:50:00.128Z,7.8
2022-09-16T04:55:00.126Z,7.8
2022-09-16T05:00:00.129Z,4
2022-09-16T05:05:00.107Z,4
2022-09-16T05:10:00.099Z,5
2022-09-16T05:15:00.110Z,5
2022-09-16T05:20:00.121Z,6.4
2022-09-16T05:25:00.107Z,6.4
2022-09-16T05:30:00.225Z,8
2022-09-16T05:35:00.112Z,8
2022-09-16T05:40:00.199Z,7.7
2022-09-16T05:45:00.162Z,7.7
2022-09-16T05:50:00.199Z,5.5
2022-09-16T05:55:00.127Z,5.5
2022-09-16T06:00:00.123Z,8.4
2022-09-16T06:05:00.130Z,8.4
2022-09-16T06:10:00.168Z,4.9
2022-09-16T06:15:00.200Z,4.9
2022-09-16T06:20:00.110Z,6
2022-09-16T06:25:00.151Z,6
2022-09-16T06:30:00.117Z,7.2
2022-09-16T06:35:00.104Z,7.2
2022-09-16T06:40:00.189Z,5
2022-09-16T06:45:00.108Z,5
2022-09-16T06:50:00.097Z,5.9
2022-09-16T06:55:00.285Z,5.9
2022-09-16T07:00:00.101Z,7.3
2022-09-16T07:05:00.124Z,7.3
2022-09-16T07:10:00.113Z,4.7
2022-09-16T07:15:00.111Z,4.7
2022-09-16T07:20:00.127Z,6.2
2022-09-16T07:25:00.124Z,6.2
2022-09-16T07:30:00.450Z,5.1
2022-09-16T07:35:00.127Z,5.1
2022-09-16T07:40:00.214Z,4.7
2022-09-16T07:45:00.102Z,4.7
2022-09-16T07:50:00.114Z,6
2022-09-16T07:55:00.118Z,6
2022-09-16T08:00:00.125Z,6.9
2022-09-16T08:05:00.110Z,6.9
2022-09-16T08:10:00.117Z,5.1
2022-09-16T08:15:00.130Z,5.1
2022-09-16T08:20:00.124Z,4.1
2022-09-16T08:25:00.136Z,4.1
2022-09-16T08:30:00.120Z,4.3
2022-09-16T08:35:00.106Z,4.3
2022-09-16T08:40:00.308Z,6.8
2022-09-16T08:45:00.113Z,6.8
2022-09-16T08:50:00.117Z,5.6
2022-09-16T08:55:00.145Z,5.6
2022-09-16T09:00:00.091Z,5.6
2022-09-16T09:05:00.107Z,5.6
2022-09-16T09:10:00.110Z,6.7
2022-09-16T09:15:00.105Z,6.7
2022-09-16T09:20:00.100Z,7.2
2022-09-16T09:25:00.175Z,7.2
2022-09-16T09:30:00.248Z,5.6
2022-09-16T09:35:00.145Z,5.6
2022-09-16T09:40:00.228Z,7.5
2022-09-16T09:45:02.075Z,7.5
2022-09-16T09:50:00.091Z,5.6
2022-09-16T09:55:00.111Z,5.6
2022-09-16T10:00:00.088Z,4.6
2022-09-16T10:05:00.111Z,4.6
2022-09-16T10:10:00.085Z,6.6
2022-09-16T10:15:00.120Z,6.6
2022-09-16T10:20:00.114Z,5.7
2022-09-16T10:25:00.109Z,5.7
2022-09-16T10:30:00.085Z,4.6
2022-09-16T10:35:00.114Z,4.6
2022-09-16T10:40:00.155Z,7.8
2022-09-16T10:45:00.106Z,7.8
2022-09-16T10:50:00.124Z,4.8
2022-09-16T10:55:00.100Z,4.8
2022-09-16T11:00:00.122Z,6.7
2022-09-16T11:05:00.099Z,6.7
2022-09-16T11:10:00.102Z,3.7
2022-09-16T11:15:00.138Z,3.7
2022-09-16T11:20:00.109Z,5.8
2022-09-16T11:25:00.087Z,5.8
2022-09-16T11:30:00.154Z,4.6
2022-09-16T11:35:00.133Z,4.6
2022-09-16T11:40:00.176Z,4.1
2022-09-16T11:45:00.115Z,4.1
2022-09-16T11:50:00.089Z,4.6
2022-09-16T11:55:00.094Z,4.6
2022-09-16T12:00:00.114Z,4.7
2022-09-16T12:05:00.091Z,4.7
2022-09-16T12:10:00.126Z,2.9
2022-09-16T12:15:04.719Z,2.9
2022-09-16T12:20:00.090Z,4.8
2022-09-16T12:25:00.101Z,4.8
2022-09-16T12:30:00.126Z,5.5
2022-09-16T12:35:00.101Z,5.5
2022-09-16T12:40:00.208Z,3.2
2022-09-16T12:45:00.126Z,3.2
2022-09-16T12:50:00.100Z,3.3
2022-09-16T12:55:08.407Z,3.3
2022-09-16T13:00:00.180Z,5.3
2022-09-16T13:05:00.135Z,5.3
2022-09-16T13:10:00.110Z,3.7
2022-09-16T13:15:00.126Z,3.7
2022-09-16T13:20:00.102Z,5.1
2022-09-16T13:25:03.436Z,5.1
2022-09-16T13:30:00.128Z,2.6
2022-09-16T13:35:00.110Z,2.6
2022-09-16T13:40:00.175Z,3.6
2022-09-16T13:45:00.137Z,3.6
2022-09-16T13:50:00.089Z,3
2022-09-16T13:55:15.544Z,3
2022-09-16T14:00:00.170Z,2.6
2022-09-16T14:05:00.121Z,2.6
2022-09-16T14:10:00.099Z,3.3
2022-09-16T14:15:00.130Z,3.3
2022-09-16T14:20:00.110Z,5.2
2022-09-16T14:25:07.081Z,5.2
2022-09-16T14:30:00.129Z,3.7
2022-09-16T14:35:00.113Z,3.7
2022-09-16T14:40:00.152Z,4
2022-09-16T14:45:00.108Z,4
2022-09-16T14:50:00.086Z,2.3
2022-09-16T14:55:00.085Z,2.3
2022-09-16T15:00:00.125Z,2.5
2022-09-16T15:05:00.108Z,2.5
2022-09-16T15:10:00.098Z,2.1
2022-09-16T15:15:00.099Z,2.1
2022-09-16T15:20:00.101Z,2
2022-09-16T15:25:00.091Z,2
2022-09-16T15:30:00.199Z,1.1
2022-09-16T15:35:00.141Z,1.1
2022-09-16T15:40:00.212Z,2.4
2022-09-16T15:45:00.124Z,2.4
2022-09-16T15:50:00.201Z,2.1
2022-09-16T15:55:00.106Z,2.1
2022-09-16T16:00:00.122Z,1.1
2022-09-16T16:05:00.115Z,1.1
2022-09-16T16:10:00.107Z,2.4
2022-09-16T16:15:00.108Z,2.4
2022-09-16T16:20:00.108Z,1.9
2022-09-16T16:25:00.122Z,1.9
2022-09-16T16:30:00.110Z,2.9
2022-09-16T16:35:00.091Z,2.9
2022-09-16T16:40:00.212Z,1.8
2022-09-16T16:45:00.115Z,1.8
2022-09-16T16:50:00.098Z,2.6
2022-09-16T16:55:00.122Z,2.6
2022-09-16T17:00:00.129Z,2.6
2022-09-16T17:05:00.087Z,2.6
2022-09-16T17:10:00.106Z,2.6
2022-09-16T17:15:00.125Z,2.6
2022-09-16T17:20:00.104Z,1.7
2022-09-16T17:25:00.110Z,1.7
2022-09-16T17:30:00.108Z,2.5
2022-09-16T17:35:00.095Z,2.5
2022-09-16T17:40:00.144Z,2
2022-09-16T17:45:00.113Z,2
2022-09-16T17:50:00.079Z,3.5
2022-09-16T17:55:00.081Z,3.5
2022-09-16T18:00:00.109Z,2.1
2022-09-16T18:05:00.190Z,2.1
2022-09-16T18:10:00.087Z,2
2022-09-16T18:15:00.115Z,2
2022-09-16T18:20:02.638Z,1.9
2022-09-16T18:25:00.092Z,1.9
2022-09-16T18:30:00.146Z,2.6
2022-09-16T18:35:00.108Z,2.6
2022-09-16T18:40:00.248Z,2.9
2022-09-16T18:45:00.123Z,2.9
2022-09-16T18:50:00.107Z,2.9
2022-09-16T18:55:00.107Z,2.9
2022-09-16T19:00:00.112Z,2
2022-09-16T19:05:00.113Z,2
2022-09-16T19:10:00.117Z,1.6
2022-09-16T19:15:00.113Z,1.6
2022-09-16T19:20:00.107Z,1.6
2022-09-16T19:25:01.476Z,1.6
2022-09-16T19:30:00.230Z,2.6
2022-09-16T19:35:00.106Z,2.6
2022-09-16T19:40:00.202Z,2.4
2022-09-16T19:45:00.143Z,2.4
2022-09-16T19:50:00.121Z,5.5
2022-09-16T19:55:00.105Z,5.5
2022-09-16T20:00:00.130Z,3
2022-09-16T20:05:00.104Z,3
2022-09-16T20:10:00.124Z,2.4
2022-09-16T20:15:00.131Z,2.4
2022-09-16T20:20:00.112Z,2
2022-09-16T20:25:18.973Z,2
2022-09-16T20:30:00.360Z,3.6
2022-09-16T20:35:00.110Z,3.6
2022-09-16T20:40:00.154Z,2.3
2022-09-16T20:45:00.121Z,2.3
2022-09-16T20:50:00.121Z,2.3
2022-09-16T20:55:00.099Z,2.3
2022-09-16T21:00:00.145Z,3.3
2022-09-16T21:05:00.113Z,3.3
2022-09-16T21:10:00.121Z,2.4
2022-09-16T21:15:00.129Z,2.4
2022-09-16T21:20:00.116Z,3.5
2022-09-16T21:25:00.121Z,3.5
2022-09-16T21:30:00.117Z,4.1
2022-09-16T21:35:00.104Z,4.1
2022-09-16T21:40:00.214Z,3.6
2022-09-16T21:45:00.134Z,3.6
2022-09-16T21:50:00.105Z,5.6
2022-09-16T21:55:00.107Z,5.6
2022-09-16T22:00:00.113Z,3.1
2022-09-16T22:05:00.095Z,3.1
2022-09-16T22:10:00.122Z,3.4
2022-09-16T22:15:00.448Z,3.4
2022-09-16T22:20:00.108Z,3.3
2022-09-16T22:25:00.157Z,3.3
2022-09-16T22:30:00.127Z,2.5
2022-09-16T22:35:00.109Z,2.5
2022-09-16T22:40:00.189Z,6.8
2022-09-16T22:45:00.120Z,6.8
2022-09-16T22:50:00.111Z,4.7
2022-09-16T22:55:00.121Z,4.7
2022-09-16T23:00:00.137Z,6.4
2022-09-16T23:05:00.102Z,6.4
2022-09-16T23:10:00.104Z,4.2
2022-09-16T23:15:00.128Z,4.2
2022-09-16T23:20:00.125Z,7.1
2022-09-16T23:25:00.128Z,7.1
2022-09-16T23:30:00.125Z,5.9
2022-09-16T23:35:00.104Z,5.9
2022-09-16T23:40:00.186Z,10.7
2022-09-16T23:45:00.117Z,10.7
2022-09-16T23:50:00.147Z,6.4
2022-09-16T23:55:00.109Z,6.4
